Terminal Aerodrome Forecast
Issued by NWS Bismarck, ND

Home | Current Version | Previous Version | Text Only | Print | Product List | Glossary Off
Versions: 1 2 3 4 5 6 7 8 9 10 11 12 13 14 15 16 17 18 19

000
FTUS43 KBIS 242322
TAFBIS
TAF
KBIS 242322Z 2500/2524 08011KT P6SM SKC
     FM250200 12006KT P6SM SCT015
     FM250600 13006KT 1 1/2SM BR BKN015
     FM251300 15009KT 2SM BR SCT025
     FM251500 16010G19KT P6SM BKN200=

USA.gov is the U.S. government's official web portal to all federal, state and local government web resources and services.